Details From PADU - UNALASKA
To PASN - ST PAUL ISLAND
Flight Number -
Tags generated
Created
Modified
Stats Distance 233 nm / 431 km
Max Altitude 12,800 ft / 3,901 m
Waypoints 4
Social Downloads 7
Likes 0
Share VATSIM

Download

Looking for another format? Having issues loading an existing format? Contact us
Advertisement - Login to hide

Notes

Basic altitude profile: - Ascent Rate: 2000ft/min - Ascent Speed: 250kts - Cruise Altitude: 30000ft - Cruise Speed: 420kts - Descent Rate: 1500ft/min - Descent Speed: 250kts

Route

PADU DUT R99 DIBWO PASN

ID Type Via Altitude Latitude Longitude Leg Dist Tot Dist Heading (true) Name
O PADU APT - 0 ft / 0 m 53.89907˚ -166.54506˚ - 0 nm - UNALASKA
DUT NDB - 100 ft / 30 m 53.90514˚ -166.54786˚ 0 nm 0 nm 345° / 345° DUTCH HARBOR NDB
DIBWO FIX R99 (AWY-LO) 12,800 ft / 3,901 m 56.32875˚ -169.22032˚ 172 nm 172 nm 329° / 327° -
O PASN APT - 0 ft / 0 m 57.16732˚ -170.22044˚ 60 nm 232 nm 327° / 326° ST PAUL ISLAND

Altitude Profile

Advertisement - Login to hide

Weather


0- 5 10 15 20 25 30 35+ Temperature / ° C

Clouds and Precipitation
Forecast for 2018-05-26 00:00 UTC. Updated 2 hours ago

Ground ~20,000 ft ~40,000 ft Winds

PADU

Details ICAO PADU (DUT)
Name UNALASKA
Region USA (Alaska)
Timezone America/Adak (UTC-9.0)
Stats Elevation 22 ft / 7 m (AMSL)
Location 53.899070° -166.545064°
Runways 1
Magnetic Variation 9.032° E

METAR

PADU 260107Z 32017G22KT 10SM BKN010 BKN017 BKN020 07/05 A2978 RMK AO2 BLK WTR NE-E CS

Decode

TAF

TAF PADU 252344Z 2600/2624 34015G22KT P6SM OVC015 FM260800 32012KT P6SM -SHRA BKN007 OVC015 FM261500 33012KT P6SM BKN015 FM261800 34012KT P6SM SCT015

Decode

Departure Runways

ID Width Length Bearing (true) Bearing (mag) Surface Threshold Offset Overrun Length
12 100 ft / 30 m 3,895 ft / 1,187 m 135.64° 126.61° Asphalt 100 ft / 30 m 0 ft / 0 m
30 100 ft / 30 m 3,895 ft / 1,187 m 315.65° 306.62° Asphalt 101 ft / 31 m 0 ft / 0 m

PASN

Details ICAO PASN (SNP)
Name ST PAUL ISLAND
Region USA (Alaska)
Timezone America/Adak (UTC-9.0)
Stats Elevation 63 ft / 19 m (AMSL)
Location 57.167319° -170.220444°
Runways 1
Magnetic Variation 7.453° E

METAR

PASN 260053Z AUTO 36017KT 6SM BR OVC006 04/03 A2993 RMK AO2 CIG 004V008 SLP135 T00390028 TSNO

Decode

TAF

TAF PASN 252344Z 2600/2624 36015KT P6SM OVC005 TEMPO 2600/2604 2SM BR OVC003 FM261500 32008KT P6SM SCT005 BKN015

Decode

Destination Runways

ID Width Length Bearing (true) Bearing (mag) Surface Threshold Offset Overrun Length
18 150 ft / 46 m 6,488 ft / 1,977 m 189.66° 182.21° Asphalt 0 ft / 0 m 0 ft / 0 m
36 150 ft / 46 m 6,488 ft / 1,977 m 9.65° 2.20° Asphalt 0 ft / 0 m 0 ft / 0 m

Approach Navaids

Runway Type Ident Frequency Range Bearing (true) Bearing (mag) Slope Elevation
36 Localiser IPAU 109.90 MHz 18 nm / 33 km 9.64° 2.19° - 63 ft / 19 m (AMSL)
36 Glidescope IPAU 109.90 MHz 10 nm / 19 km 9.66° 2.20° 3.00° 34 ft / 10 m (AMSL)